Aviation Digital Data Service (ADDS)

Output produced by TAFs form (1114 UTC 17 July 2018)
found at http://www.aviationweather.gov/adds/tafs/
 
KGSP 171111Z 25004KT 3/4SM BR OVC001 23/23 A3003 RMK AO2 T02280228
KGSP 170904Z 1709/1806 VRB03KT 1SM BR BKN002 
     TEMPO 1709/1713 1/4SM FG OVC001 
     FM171300 24004KT P6SM BKN012 
     FM171500 24005KT P6SM VCSH BKN027 
     PROB30 1718/1723 4SM -TSRA OVC025CB 
     FM172300 30004KT P6SM BKN050 
     PROB30 1723/1802 4SM -TSRA OVC025CB